Flight Track Log - Related Links

Times and Time Zones

All times are in EDT time to prevent confusion due to time zone crossing. See the RPA3210 flight status page for this flight to view local times or setup timezone preferences in your user account.

Time Position Orientation Groundspeed Altitude Reporting Facility
EDT Latitude Longitude Course Direction KTS MPH feet Rate Location/Type
Tue 08:28:14 PM 40.0025 -82.9072 180° South 139 160 1,800  Level Indianapolis Center
Tue 08:29:03 PM 40.0028 -82.9483 271° West 151 174 3,500 2,000 Climbing Indianapolis Center
Tue 08:29:05 PM 40.0033 -82.9506 288° West 174 200 3,500 3,281 Level Indianapolis Center
Tue 08:30:07 PM 39.9703 -83.0025 230° Southwest 229 264 7,000 3,366 Climbing Indianapolis Center
Tue 08:31:08 PM 39.8981 -82.9564 154° Southeast 282 325 10,400 3,024 Climbing Indianapolis Center
Tue 08:32:00 PM 39.5922 -82.7171 166° South  Level Estimated
Tue 08:32:10 PM 39.8125 -82.9222 163° South 314 361 13,200  Level Indianapolis Center
Tue 08:33:00 PM 39.5069 -82.7168 180° South  Level FlightAware Approximate
Tue 08:33:11 PM 39.7181 -82.8994 169° South 337 388 16,300  Level Indianapolis Center
Tue 08:34:13 PM 39.6181 -82.8758 170° South 354 407 18,800 2,390 Climbing Indianapolis Center
Tue 08:35:14 PM 39.5114 -82.8483 169° South 378 435 21,200 2,164 Climbing Indianapolis Center
Tue 08:36:15 PM 39.3981 -82.8203 169° South 402 463 23,200 2,195 Climbing Indianapolis Center
Tue 08:37:17 PM 39.2550 -82.7867 170° South 426 490 25,700 1,854 Climbing Indianapolis Center
Tue 08:38:18 PM 39.1478 -82.7592 169° South 443 510 27,000 634 Climbing Indianapolis Center
Tue 08:39:20 PM 39.0167 -82.7283 170° South 468 539 27,000  Level Indianapolis Center
Tue 08:40:21 PM 38.8597 -82.6914 170° South 475 547 27,000  Level Indianapolis Center
Tue 08:41:23 PM 38.7306 -82.6603 169° South 475 547 27,000  Level Indianapolis Center
Tue 08:42:24 PM 38.6133 -82.6322 169° South 475 547 27,000  Level Indianapolis Center
Tue 08:43:26 PM 38.4622 -82.5961 169° South 475 547 27,000  Level Indianapolis Center
Tue 08:44:27 PM 38.3314 -82.5653 170° South 475 547 27,000  Level Indianapolis Center
Tue 08:45:29 PM 38.2008 -82.5339 169° South 475 547 27,000  Level Indianapolis Center
Tue 08:46:30 PM 38.0711 -82.5050 170° South 474 545 27,000  Level Indianapolis Center
Tue 08:47:31 PM 37.9419 -82.4728 169° South 473 544 27,000  Level Indianapolis Center
Tue 08:48:33 PM 37.8128 -82.4447 170° South 473 544 27,000  Level Indianapolis Center
Tue 08:49:34 PM 37.6839 -82.4147 170° South 472 543 27,000  Level Indianapolis Center
Tue 08:50:35 PM 37.5525 -82.3847 170° South 472 543 27,000  Level Indianapolis Center
Tue 08:51:37 PM 37.4206 -82.3544 170° South 474 545 27,000  Level Indianapolis Center
Tue 08:52:38 PM 37.2675 -82.3181 169° South 474 545 27,000  Level Indianapolis Center
Tue 08:53:39 PM 37.1356 -82.2881 170° South 475 547 27,000  Level Indianapolis Center
Tue 08:54:40 PM 37.0031 -82.2575 170° South 475 547 27,000 -195 Level Indianapolis Center
Tue 08:55:42 PM 36.8714 -82.2269 169° South 475 547 26,600 -1,016 Descending Indianapolis Center
Tue 08:56:44 PM 36.7439 -82.1986 170° South 470 541 24,900 -1,279 Descending Indianapolis Center
Tue 08:57:44 PM 36.6206 -82.1708 170° South 457 526 24,000 -581 Descending Indianapolis Center
Tue 08:58:17 PM 36.5611 -82.1597 171° South 448 516 24,000  Level Atlanta Center
Tue 08:59:17 PM 36.4375 -82.1239 167° South 448 516 24,000  Level Atlanta Center
Tue 09:00:17 PM 36.3133 -82.0522 155° Southeast 448 516 24,000 -1,100 Level Atlanta Center
Tue 09:01:17 PM 36.2161 -81.9825 150° Southeast 448 516 21,800 -2,450 Descending Atlanta Center
Tue 09:02:17 PM 36.1086 -81.9133 153° Southeast 448 516 19,100 -2,250 Descending Atlanta Center
Tue 09:03:17 PM 36.0075 -81.8467 152° Southeast 436 502 17,300 -1,750 Descending Atlanta Center
Tue 09:04:17 PM 35.9125 -81.7875 153° Southeast 411 473 15,600 -1,700 Descending Atlanta Center
Tue 09:05:17 PM 35.8239 -81.7311 153° Southeast 382 440 13,900 -1,780 Descending Atlanta Center
Tue 09:05:48 PM 35.7753 -81.6967 150° Southeast 334 384 12,900 -1,500 Descending Atlanta Center
Tue 09:06:17 PM 35.7414 -81.6747 152° Southeast 354 407 12,400 -885 Descending Atlanta Center
Tue 09:06:49 PM 35.6864 -81.6431 155° Southeast 326 375 12,000 -400 Descending Atlanta Center
Tue 09:07:17 PM 35.6611 -81.6233 148° Southeast 336 387 12,000  Level Atlanta Center
Tue 09:08:02 PM 35.5997 -81.5742 147° Southeast 322 371 12,000  Level Atlanta Center
Tue 09:08:17 PM 35.5889 -81.5617 137° Southeast 326 375 12,000  Level Atlanta Center
Tue 09:08:57 PM 35.5458 -81.4939 128° Southeast 326 375 12,000  Level Atlanta Center
Tue 09:09:17 PM 35.5308 -81.4767 137° Southeast 320 368 12,000 -985 Level Atlanta Center
Tue 09:10:04 PM 35.4833 -81.3964 126° Southeast 317 365 10,900 -1,200 Descending Atlanta Center
Tue 09:10:17 PM 35.4769 -81.3917 149° Southeast 320 368 10,800 -1,562 Descending Atlanta Center
Tue 09:11:17 PM 35.4231 -81.3092 129° Southeast 315 362 9,000 -939 Descending Atlanta Center
Tue 09:12:12 PM 35.3692 -81.2319 131° Southeast 309 356 9,000 -100 Level Atlanta Center
Tue 09:12:17 PM 35.3669 -81.2297 141° Southeast 315 362 8,900  Descending Atlanta Center
Tue 09:13:17 PM 35.3150 -81.1525 129° Southeast 286 329 9,000 50 Climbing Atlanta Center
Tue 09:14:17 PM 35.2653 -81.0831 131° Southeast 275 316 9,000 -324 Level Atlanta Center
Tue 09:15:08 PM 35.2067 -81.0672 168° South 251 289 8,400 -900 Descending Atlanta Center
Tue 09:15:17 PM 35.1961 -81.0703 193° South 251 289 8,100 -1,527 Descending Atlanta Center
Tue 09:16:03 PM 35.1419 -81.0644 175° South 256 295 7,000 -1,540 Descending Atlanta Center
Tue 09:17:10 PM 35.0644 -81.0572 176° South 257 296 5,200 -984 Descending Atlanta Center
Tue 09:18:05 PM 35.0058 -81.0517 176° South 219 252 5,000 -110 Descending Atlanta Center
Tue 09:18:59 PM 34.9517 -81.0511 180° South 203 234 5,000  Level Atlanta Center
Tue 09:20:12 PM 34.9167 -80.9914 126° Southeast 202 232 5,000  Level Atlanta Center
Tue 09:21:07 PM 34.9386 -80.9475 59° Northeast 165 190 5,000  Level Atlanta Center
Tue 09:22:08 PM 34.9783 -80.9486 359° North 130 150 5,000 -246 Level Atlanta Center
Tue 09:23:09 PM 35.0139 -80.9550 352° North 126 145 4,500 -621 Descending Atlanta Center
Tue 09:24:04 PM 35.0494 -80.9536 North 133 153 3,800 -783 Descending Atlanta Center
Tue 09:25:04 PM 35.0872 -80.9600 352° North 135 155 3,000 -756 Descending Atlanta Center
Tue 09:26:11 PM 35.1289 -80.9608 359° North 137 158 2,200 -738 Descending Atlanta Center
Tue 09:27:06 PM 35.1622 -80.9647 355° North 132 152 1,500 -709 Descending Atlanta Center
Tue 09:28:01 PM 35.1936 -80.9686 354° North 122 140 900 -655 Descending Atlanta Center
Tue 09:30:00 PM 35.2137 -80.9491 175° South  Level Estimated

Login

Don't have an account? Register now (free) for customized features, flight alerts, and more!